sensor_id;sensor_type;location;lat;lon;timestamp;pressure;altitude;pressure_sealevel;temperature;humidity
46836;BME280;32573;51.290;6.926;2023-02-14T00:00:09;102070.78;;;6.47;100.00
46836;BME280;32573;51.290;6.926;2023-02-14T00:02:39;102070.53;;;6.44;100.00
46836;BME280;32573;51.290;6.926;2023-02-14T00:05:08;102060.69;;;6.40;100.00
46836;BME280;32573;51.290;6.926;2023-02-14T00:07:36;102063.09;;;6.37;100.00
46836;BME280;32573;51.290;6.926;2023-02-14T00:10:06;102066.22;;;6.33;100.00
46836;BME280;32573;51.290;6.926;2023-02-14T00:12:35;102067.69;;;6.29;100.00
46836;BME280;32573;51.290;6.926;2023-02-14T00:15:03;102062.16;;;6.24;100.00
46836;BME280;32573;51.290;6.926;2023-02-14T00:17:55;102071.38;;;6.21;100.00
46836;BME280;32573;51.290;6.926;2023-02-14T00:20:25;102067.53;;;6.16;100.00
46836;BME280;32573;51.290;6.926;2023-02-14T00:22:54;102067.44;;;6.14;100.00
46836;BME280;32573;51.290;6.926;2023-02-14T00:25:22;102061.06;;;6.11;100.00
46836;BME280;32573;51.290;6.926;2023-02-14T00:27:51;102056.44;;;6.07;100.00
46836;BME280;32573;51.290;6.926;2023-02-14T00:30:20;102056.09;;;6.02;100.00
46836;BME280;32573;51.290;6.926;2023-02-14T00:32:53;102060.25;;;6.00;100.00
46836;BME280;32573;51.290;6.926;2023-02-14T00:35:22;102058.19;;;5.96;100.00
46836;BME280;32573;51.290;6.926;2023-02-14T00:37:50;102063.13;;;5.93;100.00
46836;BME280;32573;51.290;6.926;2023-02-14T00:40:22;102058.47;;;5.89;100.00
46836;BME280;32573;51.290;6.926;2023-02-14T00:42:51;102052.16;;;5.85;100.00
46836;BME280;32573;51.290;6.926;2023-02-14T00:45:22;102052.03;;;5.83;100.00
46836;BME280;32573;51.290;6.926;2023-02-14T00:47:53;102046.59;;;5.80;100.00
46836;BME280;32573;51.290;6.926;2023-02-14T00:50:21;102049.72;;;5.76;100.00
46836;BME280;32573;51.290;6.926;2023-02-14T00:52:50;102046.91;;;5.73;100.00
46836;BME280;32573;51.290;6.926;2023-02-14T00:55:19;102044.88;;;5.69;100.00
46836;BME280;32573;51.290;6.926;2023-02-14T00:57:50;102058.41;;;5.65;100.00
46836;BME280;32573;51.290;6.926;2023-02-14T01:00:20;102058.81;;;5.59;100.00
46836;BME280;32573;51.290;6.926;2023-02-14T01:02:49;102049.50;;;5.51;100.00
46836;BME280;32573;51.290;6.926;2023-02-14T01:05:19;102056.97;;;5.47;100.00
46836;BME280;32573;51.290;6.926;2023-02-14T01:07:47;102058.25;;;5.41;100.00
46836;BME280;32573;51.290;6.926;2023-02-14T01:10:19;102069.97;;;5.36;100.00
46836;BME280;32573;51.290;6.926;2023-02-14T01:12:50;102066.09;;;5.31;100.00
46836;BME280;32573;51.290;6.926;2023-02-14T01:15:19;102071.84;;;5.27;100.00
46836;BME280;32573;51.290;6.926;2023-02-14T01:17:47;102067.19;;;5.23;100.00
46836;BME280;32573;51.290;6.926;2023-02-14T01:20:16;102061.75;;;5.20;100.00
46836;BME280;32573;51.290;6.926;2023-02-14T01:22:46;102064.22;;;5.18;100.00
46836;BME280;32573;51.290;6.926;2023-02-14T01:25:15;102063.97;;;5.15;100.00
46836;BME280;32573;51.290;6.926;2023-02-14T01:27:44;102061.25;;;5.14;100.00
46836;BME280;32573;51.290;6.926;2023-02-14T01:30:15;102067.22;;;5.13;100.00
46836;BME280;32573;51.290;6.926;2023-02-14T01:32:44;102061.00;;;5.11;100.00
46836;BME280;32573;51.290;6.926;2023-02-14T01:35:16;102059.19;;;5.10;100.00
46836;BME280;32573;51.290;6.926;2023-02-14T01:37:51;102053.78;;;5.07;100.00
46836;BME280;32573;51.290;6.926;2023-02-14T01:40:20;102056.22;;;5.05;100.00
46836;BME280;32573;51.290;6.926;2023-02-14T01:42:49;102058.44;;;5.01;100.00
46836;BME280;32573;51.290;6.926;2023-02-14T01:45:22;102057.56;;;5.00;100.00
46836;BME280;32573;51.290;6.926;2023-02-14T01:47:54;102058.97;;;4.96;100.00
46836;BME280;32573;51.290;6.926;2023-02-14T01:50:29;102051.84;;;4.94;100.00
46836;BME280;32573;51.290;6.926;2023-02-14T01:53:02;102048.25;;;4.92;100.00
46836;BME280;32573;51.290;6.926;2023-02-14T01:55:33;102043.72;;;4.89;100.00
46836;BME280;32573;51.290;6.926;2023-02-14T01:58:07;102043.44;;;4.86;100.00
46836;BME280;32573;51.290;6.926;2023-02-14T02:00:37;102047.50;;;4.83;100.00
46836;BME280;32573;51.290;6.926;2023-02-14T02:03:28;102043.72;;;4.79;100.00
46836;BME280;32573;51.290;6.926;2023-02-14T02:06:04;102052.06;;;4.75;100.00
46836;BME280;32573;51.290;6.926;2023-02-14T02:08:40;102047.38;;;4.71;100.00
46836;BME280;32573;51.290;6.926;2023-02-14T02:11:10;102046.25;;;4.67;100.00
46836;BME280;32573;51.290;6.926;2023-02-14T02:13:39;102044.03;;;4.62;100.00
46836;BME280;32573;51.290;6.926;2023-02-14T02:16:19;102043.53;;;4.56;100.00
46836;BME280;32573;51.290;6.926;2023-02-14T02:18:59;102044.84;;;4.50;100.00
46836;BME280;32573;51.290;6.926;2023-02-14T02:21:54;102040.97;;;4.45;100.00
46836;BME280;32573;51.290;6.926;2023-02-14T02:24:42;102035.41;;;4.41;100.00
46836;BME280;32573;51.290;6.926;2023-02-14T02:27:28;102040.19;;;4.36;100.00
46836;BME280;32573;51.290;6.926;2023-02-14T02:33:33;102031.91;;;4.30;100.00
46836;BME280;32573;51.290;6.926;2023-02-14T02:36:28;102031.66;;;4.27;100.00
46836;BME280;32573;51.290;6.926;2023-02-14T02:39:17;102033.22;;;4.25;100.00
46836;BME280;32573;51.290;6.926;2023-02-14T02:42:00;102022.56;;;4.22;100.00
46836;BME280;32573;51.290;6.926;2023-02-14T02:44:41;102024.16;;;4.20;100.00
46836;BME280;32573;51.290;6.926;2023-02-14T02:47:15;102021.19;;;4.15;100.00
46836;BME280;32573;51.290;6.926;2023-02-14T02:49:53;102024.28;;;4.11;100.00
46836;BME280;32573;51.290;6.926;2023-02-14T02:52:47;102021.28;;;4.06;100.00
46836;BME280;32573;51.290;6.926;2023-02-14T02:55:37;102014.81;;;4.01;100.00
46836;BME280;32573;51.290;6.926;2023-02-14T02:58:41;102013.53;;;3.96;100.00
46836;BME280;32573;51.290;6.926;2023-02-14T03:01:15;102014.06;;;3.92;100.00
46836;BME280;32573;51.290;6.926;2023-02-14T03:03:49;102017.16;;;3.88;100.00
46836;BME280;32573;51.290;6.926;2023-02-14T03:06:39;102024.69;;;3.85;100.00
46836;BME280;32573;51.290;6.926;2023-02-14T03:09:51;102024.41;;;3.82;100.00
46836;BME280;32573;51.290;6.926;2023-02-14T03:15:45;102027.53;;;3.78;100.00
46836;BME280;32573;51.290;6.926;2023-02-14T03:18:28;102024.78;;;3.76;100.00
46836;BME280;32573;51.290;6.926;2023-02-14T03:21:03;102023.09;;;3.77;100.00
46836;BME280;32573;51.290;6.926;2023-02-14T03:23:39;102025.69;;;3.77;100.00
46836;BME280;32573;51.290;6.926;2023-02-14T03:26:17;102017.91;;;3.77;100.00
46836;BME280;32573;51.290;6.926;2023-02-14T03:28:54;102025.69;;;3.77;100.00
46836;BME280;32573;51.290;6.926;2023-02-14T03:31:29;102019.59;;;3.76;100.00
46836;BME280;32573;51.290;6.926;2023-02-14T03:34:07;102026.47;;;3.76;100.00
46836;BME280;32573;51.290;6.926;2023-02-14T03:36:40;102029.06;;;3.76;100.00
46836;BME280;32573;51.290;6.926;2023-02-14T03:39:17;102031.66;;;3.76;100.00
46836;BME280;32573;51.290;6.926;2023-02-14T03:41:52;102037.63;;;3.75;100.00
46836;BME280;32573;51.290;6.926;2023-02-14T03:44:24;102022.09;;;3.75;100.00
46836;BME280;32573;51.290;6.926;2023-02-14T03:46:59;102034.25;;;3.76;100.00
46836;BME280;32573;51.290;6.926;2023-02-14T03:49:32;102021.31;;;3.76;100.00
46836;BME280;32573;51.290;6.926;2023-02-14T03:52:03;102022.09;;;3.75;100.00
46836;BME280;32573;51.290;6.926;2023-02-14T03:54:33;102008.09;;;3.73;100.00
46836;BME280;32573;51.290;6.926;2023-02-14T03:57:10;102016.63;;;3.72;100.00
46836;BME280;32573;51.290;6.926;2023-02-14T03:59:41;102013.03;;;3.70;100.00
46836;BME280;32573;51.290;6.926;2023-02-14T04:02:13;102017.91;;;3.66;100.00
46836;BME280;32573;51.290;6.926;2023-02-14T04:04:47;102015.31;;;3.66;100.00
46836;BME280;32573;51.290;6.926;2023-02-14T04:07:18;102016.13;;;3.65;100.00
46836;BME280;32573;51.290;6.926;2023-02-14T04:09:48;102015.31;;;3.66;100.00
46836;BME280;32573;51.290;6.926;2023-02-14T04:12:18;102017.91;;;3.66;100.00
46836;BME280;32573;51.290;6.926;2023-02-14T04:15:02;102017.91;;;3.66;100.00
46836;BME280;32573;51.290;6.926;2023-02-14T04:17:32;102017.00;;;3.66;100.00
46836;BME280;32573;51.290;6.926;2023-02-14T04:20:18;102015.22;;;3.65;100.00
46836;BME280;32573;51.290;6.926;2023-02-14T04:22:46;102006.41;;;3.63;100.00
46836;BME280;32573;51.290;6.926;2023-02-14T04:25:15;102022.59;;;3.60;100.00
46836;BME280;32573;51.290;6.926;2023-02-14T04:27:46;102025.94;;;3.59;100.00
46836;BME280;32573;51.290;6.926;2023-02-14T04:30:15;102016.09;;;3.55;100.00
46836;BME280;32573;51.290;6.926;2023-02-14T04:32:47;102006.25;;;3.51;100.00
46836;BME280;32573;51.290;6.926;2023-02-14T04:35:16;102013.91;;;3.50;100.00
46836;BME280;32573;51.290;6.926;2023-02-14T04:37:44;102013.50;;;3.45;100.00
46836;BME280;32573;51.290;6.926;2023-02-14T04:40:16;102014.00;;;3.41;100.00
46836;BME280;32573;51.290;6.926;2023-02-14T04:42:45;102019.97;;;3.40;100.00
46836;BME280;32573;51.290;6.926;2023-02-14T04:45:14;102004.16;;;3.37;100.00
46836;BME280;32573;51.290;6.926;2023-02-14T04:47:42;102013.47;;;3.35;100.00
46836;BME280;32573;51.290;6.926;2023-02-14T04:50:12;102008.00;;;3.32;100.00
46836;BME280;32573;51.290;6.926;2023-02-14T04:52:40;102004.41;;;3.30;100.00
46836;BME280;32573;51.290;6.926;2023-02-14T04:55:09;102002.47;;;3.27;100.00
46836;BME280;32573;51.290;6.926;2023-02-14T04:57:37;101997.00;;;3.24;100.00
46836;BME280;32573;51.290;6.926;2023-02-14T05:00:08;101991.41;;;3.19;100.00
46836;BME280;32573;51.290;6.926;2023-02-14T05:02:37;101986.25;;;3.19;100.00
46836;BME280;32573;51.290;6.926;2023-02-14T05:05:06;101980.81;;;3.16;100.00
46836;BME280;32573;51.290;6.926;2023-02-14T05:07:35;101982.34;;;3.14;100.00
46836;BME280;32573;51.290;6.926;2023-02-14T05:10:04;101984.03;;;3.14;100.00
46836;BME280;32573;51.290;6.926;2023-02-14T05:12:34;101982.34;;;3.14;100.00
46836;BME280;32573;51.290;6.926;2023-02-14T05:15:09;101987.53;;;3.14;100.00
46836;BME280;32573;51.290;6.926;2023-02-14T05:17:38;101974.59;;;3.14;100.00
46836;BME280;32573;51.290;6.926;2023-02-14T05:20:07;101977.47;;;3.17;100.00
46836;BME280;32573;51.290;6.926;2023-02-14T05:22:36;101975.63;;;3.16;100.00
46836;BME280;32573;51.290;6.926;2023-02-14T05:25:05;101973.06;;;3.16;100.00
46836;BME280;32573;51.290;6.926;2023-02-14T05:27:34;101971.38;;;3.17;100.00
46836;BME280;32573;51.290;6.926;2023-02-14T05:30:02;101971.38;;;3.17;100.00
46836;BME280;32573;51.290;6.926;2023-02-14T05:32:32;101974.09;;;3.18;100.00
46836;BME280;32573;51.290;6.926;2023-02-14T05:35:01;101967.25;;;3.19;100.00
46836;BME280;32573;51.290;6.926;2023-02-14T05:37:29;101962.22;;;3.20;100.00
46836;BME280;32573;51.290;6.926;2023-02-14T05:39:58;101959.72;;;3.22;100.00
46836;BME280;32573;51.290;6.926;2023-02-14T05:42:26;101966.88;;;3.24;100.00
46836;BME280;32573;51.290;6.926;2023-02-14T05:44:54;101966.09;;;3.26;100.00
46836;BME280;32573;51.290;6.926;2023-02-14T05:47:23;101952.38;;;3.27;100.00
46836;BME280;32573;51.290;6.926;2023-02-14T05:49:55;101957.69;;;3.28;100.00
46836;BME280;32573;51.290;6.926;2023-02-14T05:52:23;101957.84;;;3.30;100.00
46836;BME280;32573;51.290;6.926;2023-02-14T05:54:52;101956.00;;;3.29;100.00
46836;BME280;32573;51.290;6.926;2023-02-14T05:57:20;101966.34;;;3.29;100.00
46836;BME280;32573;51.290;6.926;2023-02-14T05:59:49;101964.56;;;3.28;100.00
46836;BME280;32573;51.290;6.926;2023-02-14T06:02:17;101968.53;;;3.24;100.00
46836;BME280;32573;51.290;6.926;2023-02-14T06:04:46;101966.75;;;3.23;100.00
46836;BME280;32573;51.290;6.926;2023-02-14T06:07:16;101966.59;;;3.21;100.00
46836;BME280;32573;51.290;6.926;2023-02-14T06:09:44;101965.56;;;3.19;100.00
46836;BME280;32573;51.290;6.926;2023-02-14T06:12:13;101968.78;;;3.17;100.00
46836;BME280;32573;51.290;6.926;2023-02-14T06:14:41;101965.19;;;3.15;100.00
46836;BME280;32573;51.290;6.926;2023-02-14T06:17:11;101968.53;;;3.14;100.00
46836;BME280;32573;51.290;6.926;2023-02-14T06:19:39;101976.94;;;3.11;100.00
46836;BME280;32573;51.290;6.926;2023-02-14T06:22:09;101977.56;;;3.09;100.00
46836;BME280;32573;51.290;6.926;2023-02-14T06:24:39;101973.94;;;3.07;100.00
46836;BME280;32573;51.290;6.926;2023-02-14T06:27:07;101983.25;;;3.05;100.00
46836;BME280;32573;51.290;6.926;2023-02-14T06:29:38;101990.72;;;3.01;100.00
46836;BME280;32573;51.290;6.926;2023-02-14T06:32:07;101988.03;;;3.00;100.00
46836;BME280;32573;51.290;6.926;2023-02-14T06:34:35;101990.47;;;2.98;100.00
46836;BME280;32573;51.290;6.926;2023-02-14T06:37:06;101995.50;;;2.97;100.00
46836;BME280;32573;51.290;6.926;2023-02-14T06:39:38;101994.47;;;2.95;100.00
46836;BME280;32573;51.290;6.926;2023-02-14T06:42:07;102003.00;;;2.94;100.00
46836;BME280;32573;51.290;6.926;2023-02-14T06:44:35;101996.00;;;2.93;100.00
46836;BME280;32573;51.290;6.926;2023-02-14T06:47:04;102000.41;;;2.94;100.00
46836;BME280;32573;51.290;6.926;2023-02-14T06:49:34;101992.38;;;2.91;100.00
46836;BME280;32573;51.290;6.926;2023-02-14T06:52:03;101998.44;;;2.91;100.00
46836;BME280;32573;51.290;6.926;2023-02-14T06:54:32;101998.59;;;2.93;100.00
46836;BME280;32573;51.290;6.926;2023-02-14T06:57:02;101998.72;;;2.94;100.00
46836;BME280;32573;51.290;6.926;2023-02-14T06:59:30;102002.22;;;2.95;100.00
46836;BME280;32573;51.290;6.926;2023-02-14T07:01:58;101998.72;;;2.94;100.00
46836;BME280;32573;51.290;6.926;2023-02-14T07:04:27;101997.06;;;2.95;100.00
46836;BME280;32573;51.290;6.926;2023-02-14T07:06:56;102001.44;;;2.96;100.00
46836;BME280;32573;51.290;6.926;2023-02-14T07:09:24;101998.88;;;2.96;100.00
46836;BME280;32573;51.290;6.926;2023-02-14T07:11:52;101999.66;;;2.95;100.00
46836;BME280;32573;51.290;6.926;2023-02-14T07:14:22;102000.66;;;2.97;100.00
46836;BME280;32573;51.290;6.926;2023-02-14T07:16:51;101999.91;;;2.98;100.00
46836;BME280;32573;51.290;6.926;2023-02-14T07:19:19;102001.72;;;2.99;100.00
46836;BME280;32573;51.290;6.926;2023-02-14T07:21:47;102001.06;;;3.01;100.00
46836;BME280;32573;51.290;6.926;2023-02-14T07:24:16;101998.63;;;3.03;100.00
46836;BME280;32573;51.290;6.926;2023-02-14T07:26:44;101997.09;;;3.05;100.00
46836;BME280;32573;51.290;6.926;2023-02-14T07:29:12;101998.91;;;3.06;100.00
46836;BME280;32573;51.290;6.926;2023-02-14T07:31:43;101997.34;;;3.08;100.00
46836;BME280;32573;51.290;6.926;2023-02-14T07:34:11;101992.44;;;3.11;100.00
46836;BME280;32573;51.290;6.926;2023-02-14T07:36:40;101988.47;;;3.15;100.00
46836;BME280;32573;51.290;6.926;2023-02-14T07:39:10;101992.34;;;3.20;100.00
46836;BME280;32573;51.290;6.926;2023-02-14T07:41:38;101990.19;;;3.24;100.00
46836;BME280;32573;51.290;6.926;2023-02-14T07:44:09;101988.25;;;3.32;100.00
46836;BME280;32573;51.290;6.926;2023-02-14T07:46:37;101983.59;;;3.38;100.00
46836;BME280;32573;51.290;6.926;2023-02-14T07:49:07;101995.38;;;3.45;100.00
46836;BME280;32573;51.290;6.926;2023-02-14T07:51:36;101981.25;;;3.52;100.00
46836;BME280;32573;51.290;6.926;2023-02-14T07:54:04;101982.72;;;3.58;100.00
46836;BME280;32573;51.290;6.926;2023-02-14T07:56:33;101985.03;;;3.65;100.00
46836;BME280;32573;51.290;6.926;2023-02-14T07:59:01;101984.00;;;3.74;100.00
46836;BME280;32573;51.290;6.926;2023-02-14T08:01:30;101978.56;;;3.81;100.00
46836;BME280;32573;51.290;6.926;2023-02-14T08:03:59;101988.69;;;3.88;100.00
46836;BME280;32573;51.290;6.926;2023-02-14T08:06:29;101980.66;;;3.95;100.00
46836;BME280;32573;51.290;6.926;2023-02-14T08:08:59;101977.81;;;4.02;100.00
46836;BME280;32573;51.290;6.926;2023-02-14T08:11:28;101983.63;;;4.10;100.00
46836;BME280;32573;51.290;6.926;2023-02-14T08:14:14;101985.28;;;4.20;100.00
46836;BME280;32573;51.290;6.926;2023-02-14T08:16:42;101983.19;;;4.26;100.00
46836;BME280;32573;51.290;6.926;2023-02-14T08:19:11;101983.72;;;4.32;100.00
46836;BME280;32573;51.290;6.926;2023-02-14T08:21:41;101989.63;;;4.41;100.00
46836;BME280;32573;51.290;6.926;2023-02-14T08:24:09;101981.34;;;4.45;100.00
46836;BME280;32573;51.290;6.926;2023-02-14T08:26:37;101973.28;;;4.52;100.00
46836;BME280;32573;51.290;6.926;2023-02-14T08:29:06;101974.00;;;4.62;100.00
46836;BME280;32573;51.290;6.926;2023-02-14T08:31:34;101976.31;;;4.69;100.00
46836;BME280;32573;51.290;6.926;2023-02-14T08:34:05;101979.53;;;4.76;100.00
46836;BME280;32573;51.290;6.926;2023-02-14T08:36:34;101982.78;;;4.84;100.00
46836;BME280;32573;51.290;6.926;2023-02-14T08:39:04;101972.22;;;4.93;100.00
46836;BME280;32573;51.290;6.926;2023-02-14T08:41:33;101981.50;;;5.01;100.00
46836;BME280;32573;51.290;6.926;2023-02-14T08:44:02;101979.50;;;5.09;100.00
46836;BME280;32573;51.290;6.926;2023-02-14T08:46:31;101983.66;;;5.17;100.00
46836;BME280;32573;51.290;6.926;2023-02-14T08:49:00;101995.66;;;5.27;100.00
46836;BME280;32573;51.290;6.926;2023-02-14T08:51:28;101997.94;;;5.34;100.00
46836;BME280;32573;51.290;6.926;2023-02-14T08:53:57;101989.97;;;5.43;100.00
46836;BME280;32573;51.290;6.926;2023-02-14T08:56:26;101990.69;;;5.52;100.00
46836;BME280;32573;51.290;6.926;2023-02-14T08:58:55;101995.69;;;5.60;100.00
46836;BME280;32573;51.290;6.926;2023-02-14T09:01:26;101992.91;;;5.69;100.00
46836;BME280;32573;51.290;6.926;2023-02-14T09:03:57;101989.22;;;5.77;100.00
46836;BME280;32573;51.290;6.926;2023-02-14T09:06:26;101988.22;;;5.87;100.00
46836;BME280;32573;51.290;6.926;2023-02-14T09:08:54;101982.84;;;5.96;100.00
46836;BME280;32573;51.290;6.926;2023-02-14T09:11:25;101980.81;;;6.03;100.00
46836;BME280;32573;51.290;6.926;2023-02-14T09:13:56;101980.63;;;6.12;100.00
46836;BME280;32573;51.290;6.926;2023-02-14T09:16:24;101971.69;;;6.20;100.00
46836;BME280;32573;51.290;6.926;2023-02-14T09:18:53;101966.16;;;6.28;100.00
46836;BME280;32573;51.290;6.926;2023-02-14T09:21:24;101972.06;;;6.37;100.00
46836;BME280;32573;51.290;6.926;2023-02-14T09:23:53;101966.50;;;6.44;100.00
46836;BME280;32573;51.290;6.926;2023-02-14T09:26:22;101960.94;;;6.51;100.00
46836;BME280;32573;51.290;6.926;2023-02-14T09:28:50;101966.72;;;6.59;100.00
46836;BME280;32573;51.290;6.926;2023-02-14T09:31:22;101962.09;;;6.66;100.00
46836;BME280;32573;51.290;6.926;2023-02-14T09:33:51;101958.34;;;6.75;100.00
46836;BME280;32573;51.290;6.926;2023-02-14T09:36:19;101960.59;;;6.82;100.00
46836;BME280;32573;51.290;6.926;2023-02-14T09:39:05;101949.84;;;6.89;100.00
46836;BME280;32573;51.290;6.926;2023-02-14T09:41:50;101953.00;;;6.97;100.00
46836;BME280;32573;51.290;6.926;2023-02-14T09:44:28;101947.53;;;7.05;100.00
46836;BME280;32573;51.290;6.926;2023-02-14T09:47:05;101947.16;;;7.12;100.00
46836;BME280;32573;51.290;6.926;2023-02-14T09:49:37;101944.28;;;7.21;100.00
46836;BME280;32573;51.290;6.926;2023-02-14T09:52:11;101948.38;;;7.29;100.00
46836;BME280;32573;51.290;6.926;2023-02-14T09:54:45;101948.09;;;7.38;100.00
46836;BME280;32573;51.290;6.926;2023-02-14T09:57:25;101952.16;;;7.46;100.00
46836;BME280;32573;51.290;6.926;2023-02-14T10:00:04;101939.66;;;7.54;100.00
46836;BME280;32573;51.290;6.926;2023-02-14T10:02:47;101940.16;;;7.62;100.00
46836;BME280;32573;51.290;6.926;2023-02-14T10:05:17;101938.88;;;7.68;100.00
46836;BME280;32573;51.290;6.926;2023-02-14T10:07:56;101947.22;;;7.76;100.00
46836;BME280;32573;51.290;6.926;2023-02-14T10:10:28;101944.22;;;7.83;100.00
46836;BME280;32573;51.290;6.926;2023-02-14T10:13:04;101945.56;;;7.90;100.00
46836;BME280;32573;51.290;6.926;2023-02-14T10:15:38;101946.88;;;7.96;100.00
46836;BME280;32573;51.290;6.926;2023-02-14T10:18:12;101942.06;;;8.03;100.00
46836;BME280;32573;51.290;6.926;2023-02-14T10:20:45;101931.13;;;8.08;100.00
46836;BME280;32573;51.290;6.926;2023-02-14T10:23:31;101935.19;;;8.16;100.00
46836;BME280;32573;51.290;6.926;2023-02-14T10:26:03;101940.09;;;8.25;100.00
46836;BME280;32573;51.290;6.926;2023-02-14T10:28:34;101942.41;;;8.34;100.00
46836;BME280;32573;51.290;6.926;2023-02-14T10:31:24;101943.84;;;8.42;100.00
46836;BME280;32573;51.290;6.926;2023-02-14T10:33:56;101938.09;;;8.48;100.00
46836;BME280;32573;51.290;6.926;2023-02-14T10:36:48;101949.16;;;8.57;100.00
46836;BME280;32573;51.290;6.926;2023-02-14T10:39:38;101943.41;;;8.62;100.00
46836;BME280;32573;51.290;6.926;2023-02-14T10:42:16;101941.31;;;8.70;100.00
46836;BME280;32573;51.290;6.926;2023-02-14T10:45:01;101939.09;;;8.76;100.00
46836;BME280;32573;51.290;6.926;2023-02-14T10:47:42;101926.53;;;8.84;100.00
46836;BME280;32573;51.290;6.926;2023-02-14T10:50:25;101923.59;;;8.93;100.00
46836;BME280;32573;51.290;6.926;2023-02-14T10:53:01;101917.13;;;9.01;100.00
46836;BME280;32573;51.290;6.926;2023-02-14T10:55:41;101914.09;;;9.08;100.00
46836;BME280;32573;51.290;6.926;2023-02-14T10:58:12;101912.88;;;9.16;100.00
46836;BME280;32573;51.290;6.926;2023-02-14T11:00:51;101908.13;;;9.24;100.00
46836;BME280;32573;51.290;6.926;2023-02-14T11:03:21;101909.50;;;9.32;100.00
46836;BME280;32573;51.290;6.926;2023-02-14T11:05:51;101903.84;;;9.39;100.00
46836;BME280;32573;51.290;6.926;2023-02-14T11:08:24;101904.31;;;9.47;100.00
46836;BME280;32573;51.290;6.926;2023-02-14T11:10:54;101904.75;;;9.55;100.00
46836;BME280;32573;51.290;6.926;2023-02-14T11:13:32;101893.75;;;9.60;100.00
46836;BME280;32573;51.290;6.926;2023-02-14T11:16:03;101892.44;;;9.67;100.00
46836;BME280;32573;51.290;6.926;2023-02-14T11:18:34;101891.88;;;9.72;100.00
46836;BME280;32573;51.290;6.926;2023-02-14T11:21:08;101891.44;;;9.80;100.00
46836;BME280;32573;51.290;6.926;2023-02-14T11:23:39;101893.72;;;9.88;100.00
46836;BME280;32573;51.290;6.926;2023-02-14T11:26:13;101889.81;;;9.97;100.00
46836;BME280;32573;51.290;6.926;2023-02-14T11:28:45;101881.41;;;10.02;100.00
46836;BME280;32573;51.290;6.926;2023-02-14T11:31:24;101881.88;;;10.10;100.00
46836;BME280;32573;51.290;6.926;2023-02-14T11:33:53;101887.53;;;10.18;100.00
46836;BME280;32573;51.290;6.926;2023-02-14T11:36:23;101880.06;;;10.24;100.00
46836;BME280;32573;51.290;6.926;2023-02-14T11:39:04;101882.25;;;10.31;100.00
46836;BME280;32573;51.290;6.926;2023-02-14T11:41:46;101872.28;;;10.40;100.00
46836;BME280;32573;51.290;6.926;2023-02-14T11:44:17;101865.78;;;10.48;100.00
46836;BME280;32573;51.290;6.926;2023-02-14T11:46:49;101866.25;;;10.57;100.00
46836;BME280;32573;51.290;6.926;2023-02-14T11:49:25;101859.81;;;10.67;100.00
46836;BME280;32573;51.290;6.926;2023-02-14T11:51:58;101848.97;;;10.76;100.00
46836;BME280;32573;51.290;6.926;2023-02-14T11:54:29;101852.88;;;10.84;100.00
46836;BME280;32573;51.290;6.926;2023-02-14T11:57:07;101844.56;;;10.91;100.00
46836;BME280;32573;51.290;6.926;2023-02-14T11:59:42;101844.84;;;10.97;100.00
46836;BME280;32573;51.290;6.926;2023-02-14T12:02:23;101838.25;;;11.04;100.00
46836;BME280;32573;51.290;6.926;2023-02-14T12:04:55;101843.06;;;11.13;100.00
46836;BME280;32573;51.290;6.926;2023-02-14T12:07:29;101840.94;;;11.22;100.00
46836;BME280;32573;51.290;6.926;2023-02-14T12:10:17;101830.75;;;11.28;100.00
46836;BME280;32573;51.290;6.926;2023-02-14T12:12:55;101837.31;;;11.36;100.00
46836;BME280;32573;51.290;6.926;2023-02-14T12:15:29;101829.75;;;11.42;100.00
46836;BME280;32573;51.290;6.926;2023-02-14T12:18:16;101825.63;;;11.48;100.00
46836;BME280;32573;51.290;6.926;2023-02-14T12:20:52;101821.53;;;11.53;100.00
46836;BME280;32573;51.290;6.926;2023-02-14T12:23:26;101809.53;;;11.58;100.00
46836;BME280;32573;51.290;6.926;2023-02-14T12:26:00;101801.09;;;11.63;100.00
46836;BME280;32573;51.290;6.926;2023-02-14T12:28:33;101796.91;;;11.67;100.00
46836;BME280;32573;51.290;6.926;2023-02-14T12:31:08;101794.44;;;11.70;100.00
46836;BME280;32573;51.290;6.926;2023-02-14T12:33:38;101789.34;;;11.73;100.00
46836;BME280;32573;51.290;6.926;2023-02-14T12:36:12;101785.28;;;11.80;100.00
46836;BME280;32573;51.290;6.926;2023-02-14T12:38:53;101793.41;;;11.84;100.00
46836;BME280;32573;51.290;6.926;2023-02-14T12:41:33;101791.78;;;11.86;100.00
46836;BME280;32573;51.290;6.926;2023-02-14T12:44:07;101786.75;;;11.91;100.00
46836;BME280;32573;51.290;6.926;2023-02-14T12:46:49;101781.75;;;11.96;100.00
46836;BME280;32573;51.290;6.926;2023-02-14T12:49:30;101778.44;;;12.00;100.00
46836;BME280;32573;51.290;6.926;2023-02-14T12:52:12;101782.03;;;12.02;100.00
46836;BME280;32573;51.290;6.926;2023-02-14T12:54:59;101764.63;;;12.04;100.00
46836;BME280;32573;51.290;6.926;2023-02-14T12:57:39;101768.38;;;12.09;100.00
46836;BME280;32573;51.290;6.926;2023-02-14T13:00:18;101760.88;;;12.17;100.00
46836;BME280;32573;51.290;6.926;2023-02-14T13:05:59;101761.44;;;12.29;100.00
46836;BME280;32573;51.290;6.926;2023-02-14T13:08:42;101755.56;;;12.35;100.00
46836;BME280;32573;51.290;6.926;2023-02-14T13:11:26;101749.78;;;12.42;100.00
46836;BME280;32573;51.290;6.926;2023-02-14T13:14:06;101757.13;;;12.49;100.00
46836;BME280;32573;51.290;6.926;2023-02-14T13:16:43;101754.75;;;12.55;100.00
46836;BME280;32573;51.290;6.926;2023-02-14T13:19:24;101748.91;;;12.61;100.00
46836;BME280;32573;51.290;6.926;2023-02-14T13:21:57;101747.44;;;12.67;100.00
46836;BME280;32573;51.290;6.926;2023-02-14T13:24:28;101744.22;;;12.73;100.00
46836;BME280;32573;51.290;6.926;2023-02-14T13:27:01;101739.13;;;12.78;100.00